Aérodrome :
LOGIN :

S'inscrire | Disclaimer

   EN    FR    IT 

 










Légende :    VFR   VFR Marginal   IFR   IFR Intensif   IFR Très Intensif
Visi : 
Plafond : 
>= 8 km
>= 3000ft
5 à 8 km
1000 à 3000 ft
1500m à 5 km
500 à 1000 ft
800 à 1500m
200 à 500 ft
< 800m
< 200 ft
Symboles :   Orages  Brouillard  Fortes neiges  Fortes précipitations  Vent > 20 kt
SIGMETs :   Divers  Orages  Givrage  Turbulence  Onde Orograph.  Cendres Volcan.






- Altitude de l'aérodrome : 885 ft
- Code IATA : BAS


LFSB - Bale-Mulhouse

DERNIER METAR :
  • 122100Z AUTO VRB03KT CAVOK 22/20 Q1014 BECMG FEW070CB

METARs EXPIRÉS :
  • 122030Z AUTO 19002KT CAVOK 23/20 Q1014 BECMG FEW070CB
  • 122000Z AUTO 26001KT CAVOK 24/20 Q1014 BECMG FEW070CB
  • 121930Z AUTO 24003KT CAVOK 24/20 Q1014 BECMG FEW070CB
  • 121900Z AUTO 23002KT CAVOK 25/20 Q1014 BECMG FEW070CB
  • 121830Z AUTO 21003KT CAVOK 26/20 Q1014 BECMG FEW070CB

TAF TAF LFSB
Valide du 12 à 18h jusqu'au 13 à 18h UTC


121700Z 1218/1318 25006KT 9999 FEW070CB
PROB30
TEMPO 1218/1219 28015G25KT 4500 TSRA SCT070CB BKN110
PROB30
TEMPO 1301/1307 VRB15G28KT 4500 TSRA SCT070CB BKN110
TEMPO 1307/1313 CAVOK
PROB40
TEMPO 1313/1318 VRB15G28KT 4500 TSRA SCT070CB BKN110
Météo : +33 3 89 90 31 11



MET'MAP, la Météo Aéronautique d'un coup d'oeil ! - Copyright ORBIFLY Décembre 2007 - Disclaimer

ORBIFLY MET'MAP TEAM :

Programmation & Développement : Alexandra Zaïnal
Sur une idée originale de : Baudouin d'Aumeries
Assistance à la programmation : Marc-Olivier Méhu
Soutien technique & logistique : Manuel Goepfert

Contact : metmap@orbifly.com




SOURCES & CREDITS :

   NOAA